Time;durP1;ratioP1;P1;durP2;ratioP2;P2;SDS_P1;SDS_P2;PMS_P1;PMS_P2;Temp;Humidity;BMP_temperature;BMP_pressure;BME280_temperature;BME280_humidity;BME280_pressure;Samples;Min_cycle;Max_cycle;Signal;HPM_P1;HPM_P2
2023/04/16 00:02:18;;;;;;;60.72;24.67;;;8.20;99.90;;;;;;5063830;28;20076;-77
2023/04/16 00:04:44;;;;;;;65.15;27.35;;;8.20;99.90;;;;;;5069741;28;20131;-78
2023/04/16 00:07:10;;;;;;;54.83;24.67;;;8.20;99.90;;;;;;5053714;28;20086;-77
2023/04/16 00:09:35;;;;;;;63.45;27.38;;;8.20;99.90;;;;;;5069314;28;20570;-77
2023/04/16 00:12:01;;;;;;;69.45;28.77;;;8.20;99.90;;;;;;5053387;28;20048;-78
2023/04/16 00:14:28;;;;;;;67.15;26.70;;;8.20;99.90;;;;;;5060993;28;20033;-78
2023/04/16 00:16:53;;;;;;;62.00;26.83;;;8.20;99.90;;;;;;5040157;28;20040;-78
2023/04/16 00:19:19;;;;;;;61.10;25.88;;;8.20;99.90;;;;;;5054771;28;20044;-78
2023/04/16 00:21:45;;;;;;;73.03;28.25;;;8.10;99.90;;;;;;5073264;28;20052;-77
2023/04/16 00:24:10;;;;;;;65.90;28.30;;;8.20;99.90;;;;;;5072058;28;20036;-77
2023/04/16 00:26:36;;;;;;;67.15;28.85;;;9.20;99.90;;;;;;5065422;28;20380;-77
2023/04/16 00:29:02;;;;;;;78.95;29.50;;;8.20;99.90;;;;;;5058683;28;20047;-76
2023/04/16 00:31:29;;;;;;;69.85;28.95;;;8.10;99.90;;;;;;5060388;28;20057;-76
2023/04/16 00:33:55;;;;;;;69.40;29.65;;;8.10;99.90;;;;;;5071184;28;20039;-77
2023/04/16 00:36:26;;;;;;;66.15;28.27;;;8.10;99.90;;;;;;5040945;28;20041;-78
2023/04/16 00:38:52;;;;;;;60.03;27.98;;;8.20;99.90;;;;;;5063613;28;20044;-77
2023/04/16 00:41:18;;;;;;;75.65;30.10;;;8.10;99.90;;;;;;5064602;28;20167;-77
2023/04/16 00:43:44;;;;;;;64.43;27.55;;;8.10;99.90;;;;;;5033275;28;20506;-78
2023/04/16 00:46:11;;;;;;;67.88;27.55;;;8.10;99.90;;;;;;5068788;28;20047;-77
2023/04/16 00:48:38;;;;;;;85.13;30.02;;;8.10;99.90;;;;;;5058511;28;20044;-78
2023/04/16 00:51:05;;;;;;;63.72;29.58;;;8.10;99.90;;;;;;5052443;28;20038;-78
2023/04/16 00:53:30;;;;;;;74.30;31.30;;;8.10;99.90;;;;;;5069978;28;20075;-78
2023/04/16 00:55:56;;;;;;;72.32;30.73;;;8.80;99.90;;;;;;5035639;28;20049;-79
2023/04/16 00:58:22;;;;;;;61.28;29.08;;;8.10;99.90;;;;;;5079221;28;20048;-78
2023/04/16 01:00:48;;;;;;;81.22;29.83;;;8.10;99.90;;;;;;5026375;28;20053;-78
2023/04/16 01:03:14;;;;;;;65.32;28.73;;;8.30;99.90;;;;;;5063252;28;20041;-77
2023/04/16 01:05:40;;;;;;;61.63;28.48;;;8.00;99.90;;;;;;5069759;28;20043;-78
2023/04/16 01:08:06;;;;;;;66.28;28.25;;;8.00;99.90;;;;;;5070088;28;20135;-77
2023/04/16 01:10:31;;;;;;;70.80;28.83;;;8.00;99.90;;;;;;5051665;28;20526;-77
2023/04/16 01:12:57;;;;;;;61.22;27.73;;;8.00;99.90;;;;;;5067560;28;20101;-77
2023/04/16 01:15:23;;;;;;;79.22;27.83;;;8.00;99.90;;;;;;5068636;28;20301;-77
2023/04/16 01:17:48;;;;;;;64.60;28.40;;;8.00;99.90;;;;;;5052579;28;20125;-77
2023/04/16 01:20:14;;;;;;;61.03;28.05;;;8.00;99.90;;;;;;5070262;28;20044;-78
2023/04/16 01:22:40;;;;;;;65.50;26.77;;;8.00;99.90;;;;;;5069529;28;20471;-78
2023/04/16 01:25:06;;;;;;;71.40;25.98;;;8.00;99.90;;;;;;5039808;28;20408;-78
2023/04/16 01:27:31;;;;;;;85.22;27.38;;;8.00;99.90;;;;;;5034538;28;20561;-79
2023/04/16 01:29:57;;;;;;;70.28;26.65;;;8.00;99.90;;;;;;5072573;28;20148;-78
2023/04/16 01:32:23;;;;;;;70.45;26.55;;;8.00;99.90;;;;;;5035458;28;20169;-78
2023/04/16 01:34:48;;;;;;;56.05;25.83;;;7.90;99.90;;;;;;5057696;28;20056;-77
2023/04/16 01:37:16;;;;;;;71.78;26.15;;;7.90;99.90;;;;;;5051718;28;20498;-77
2023/04/16 01:39:42;;;;;;;89.38;27.75;;;7.90;99.90;;;;;;5072391;28;20048;-77
2023/04/16 01:42:08;;;;;;;62.22;24.45;;;7.90;99.90;;;;;;5053596;28;20059;-77
2023/04/16 01:44:33;;;;;;;92.20;24.98;;;7.90;99.90;;;;;;5060381;28;20143;-78
2023/04/16 01:46:59;;;;;;;71.25;25.77;;;7.90;99.90;;;;;;5076879;28;20040;-78
2023/04/16 01:49:25;;;;;;;102.85;25.42;;;7.90;99.90;;;;;;5055668;28;20090;-78
2023/04/16 01:51:51;;;;;;;97.95;27.13;;;7.90;99.90;;;;;;5054394;28;20040;-78
2023/04/16 01:54:17;;;;;;;66.13;24.60;;;7.90;99.90;;;;;;5067315;28;20115;-78
2023/04/16 01:56:43;;;;;;;56.38;23.25;;;7.90;99.90;;;;;;5050858;28;20564;-78
2023/04/16 01:59:08;;;;;;;56.58;24.23;;;7.80;99.90;;;;;;5026843;28;20056;-77
2023/04/16 02:01:34;;;;;;;63.25;24.52;;;7.80;99.90;;;;;;5040705;28;20045;-78
2023/04/16 02:04:00;;;;;;;66.55;24.08;;;7.90;99.90;;;;;;5043089;28;20074;-79
2023/04/16 02:06:26;;;;;;;72.22;25.33;;;7.80;99.90;;;;;;5042256;28;20149;-78
2023/04/16 02:08:52;;;;;;;78.20;25.17;;;7.80;99.90;;;;;;5070396;28;20045;-78
2023/04/16 02:11:17;;;;;;;94.10;27.13;;;7.80;99.90;;;;;;5050065;28;20052;-77
2023/04/16 02:13:43;;;;;;;52.42;22.98;;;7.80;99.90;;;;;;5058351;28;20051;-78
2023/04/16 02:16:09;;;;;;;79.57;27.58;;;7.80;99.90;;;;;;5049820;28;20072;-78
2023/04/16 02:18:35;;;;;;;55.80;24.35;;;7.80;99.90;;;;;;5061463;28;20044;-78
2023/04/16 02:21:01;;;;;;;62.58;25.35;;;7.90;99.90;;;;;;5067207;28;20059;-77
2023/04/16 02:23:26;;;;;;;55.03;24.88;;;7.90;99.90;;;;;;5054026;28;20052;-77
2023/04/16 02:25:52;;;;;;;58.55;25.60;;;7.90;99.90;;;;;;5024680;28;20505;-78
2023/04/16 02:28:18;;;;;;;82.65;27.00;;;7.90;99.90;;;;;;5058563;28;20036;-78
2023/04/16 02:30:44;;;;;;;65.22;26.15;;;7.90;99.90;;;;;;5062313;28;20049;-78
2023/04/16 02:33:11;;;;;;;92.88;29.42;;;7.90;99.90;;;;;;5060260;28;20048;-78
2023/04/16 02:35:37;;;;;;;97.00;31.55;;;8.00;99.90;;;;;;5052963;28;20440;-78
2023/04/16 02:38:03;;;;;;;92.65;31.02;;;7.90;99.90;;;;;;5061106;28;20057;-77
2023/04/16 02:40:30;;;;;;;76.97;30.27;;;8.00;99.90;;;;;;5063470;28;20048;-77
2023/04/16 02:42:56;;;;;;;86.22;31.13;;;8.00;99.90;;;;;;5066875;28;20378;-77
2023/04/16 02:45:22;;;;;;;89.40;30.48;;;8.00;99.90;;;;;;5060625;28;20143;-77
2023/04/16 02:47:49;;;;;;;87.20;31.30;;;8.00;99.90;;;;;;5051006;28;20048;-77
2023/04/16 02:50:15;;;;;;;73.05;28.55;;;8.00;99.90;;;;;;5066610;28;20071;-77
2023/04/16 02:52:41;;;;;;;79.60;30.77;;;8.00;99.90;;;;;;5053708;28;20113;-77
2023/04/16 02:55:08;;;;;;;77.28;29.83;;;8.00;99.90;;;;;;5065311;28;20462;-79
2023/04/16 02:57:34;;;;;;;70.88;28.23;;;8.00;99.90;;;;;;5058434;28;20041;-78
2023/04/16 03:00:00;;;;;;;71.63;27.08;;;8.70;99.90;;;;;;5070930;28;20486;-78
2023/04/16 03:02:26;;;;;;;82.95;28.98;;;8.00;99.90;;;;;;5074674;28;20140;-77
2023/04/16 03:04:52;;;;;;;68.80;28.25;;;8.00;99.90;;;;;;5066428;28;20083;-78
2023/04/16 03:07:18;;;;;;;87.32;29.02;;;8.00;99.90;;;;;;5055647;28;20109;-78
2023/04/16 03:09:44;;;;;;;68.43;28.50;;;8.00;99.90;;;;;;5057556;28;20045;-79
2023/04/16 03:12:10;;;;;;;54.60;27.08;;;8.00;99.90;;;;;;5071609;28;20040;-79
2023/04/16 03:14:35;;;;;;;63.33;27.42;;;8.00;99.90;;;;;;5073039;28;20558;-78
2023/04/16 03:17:01;;;;;;;67.72;26.35;;;8.00;99.90;;;;;;5072506;28;20040;-77
2023/04/16 03:19:27;;;;;;;72.43;27.20;;;8.00;99.90;;;;;;5063274;28;20533;-78
2023/04/16 03:21:53;;;;;;;68.18;26.35;;;7.90;99.90;;;;;;5057699;28;20101;-78
2023/04/16 03:24:18;;;;;;;71.07;28.08;;;8.00;99.90;;;;;;5058063;28;20112;-77
2023/04/16 03:26:44;;;;;;;67.10;27.38;;;7.90;99.90;;;;;;5038057;28;20190;-78
2023/04/16 03:29:10;;;;;;;60.00;26.13;;;7.90;99.90;;;;;;5055622;28;20044;-77
2023/04/16 03:31:35;;;;;;;64.55;25.35;;;7.90;99.90;;;;;;5069747;28;20499;-78
2023/04/16 03:34:01;;;;;;;54.42;24.33;;;7.90;99.90;;;;;;5036796;28;20040;-78
2023/04/16 03:36:27;;;;;;;65.97;26.92;;;7.90;99.90;;;;;;5056051;28;20467;-77
2023/04/16 03:38:53;;;;;;;65.05;25.63;;;7.90;99.90;;;;;;5038398;28;20037;-77
2023/04/16 03:41:19;;;;;;;55.95;24.38;;;7.90;99.90;;;;;;5075887;28;20060;-77
2023/04/16 03:43:45;;;;;;;58.70;25.05;;;7.90;99.90;;;;;;5070607;28;20046;-77
2023/04/16 03:46:10;;;;;;;60.95;25.35;;;7.90;99.90;;;;;;5063769;28;20522;-77
2023/04/16 03:48:36;;;;;;;58.13;24.40;;;7.90;99.90;;;;;;5055624;28;20404;-78
2023/04/16 03:51:02;;;;;;;66.50;24.52;;;7.90;99.90;;;;;;5066124;28;20067;-76
2023/04/16 03:53:28;;;;;;;74.78;26.00;;;7.90;99.90;;;;;;5024249;28;20044;-78
2023/04/16 03:55:54;;;;;;;55.20;24.42;;;7.90;99.90;;;;;;5054081;28;20048;-78
2023/04/16 03:58:20;;;;;;;52.55;22.98;;;7.90;99.90;;;;;;5069898;28;20037;-76
2023/04/16 04:00:45;;;;;;;58.08;25.08;;;7.90;99.90;;;;;;5070350;28;20054;-77
2023/04/16 04:03:12;;;;;;;70.43;25.85;;;7.90;99.90;;;;;;5054310;28;20040;-77
2023/04/16 04:05:39;;;;;;;64.85;24.80;;;7.90;99.90;;;;;;5070991;28;20044;-78
2023/04/16 04:08:06;;;;;;;60.15;24.42;;;7.90;99.90;;;;;;5071417;28;20498;-78
2023/04/16 04:10:35;;;;;;;65.10;25.20;;;7.90;99.90;;;;;;5063347;28;20044;-77
2023/04/16 04:13:03;;;;;;;67.85;23.85;;;7.90;99.90;;;;;;5061697;28;20484;-78
2023/04/16 04:15:29;;;;;;;62.35;24.65;;;7.80;99.90;;;;;;5051827;28;20037;-77
2023/04/16 04:17:55;;;;;;;63.35;24.92;;;7.80;99.90;;;;;;5061279;28;20033;-77
2023/04/16 04:20:21;;;;;;;58.80;25.45;;;7.80;99.90;;;;;;5053572;28;20109;-78
2023/04/16 04:22:47;;;;;;;61.28;24.60;;;7.80;99.90;;;;;;5047501;28;20044;-77
2023/04/16 04:25:13;;;;;;;63.60;24.73;;;7.80;99.90;;;;;;5069617;28;20036;-79
2023/04/16 04:27:39;;;;;;;65.80;24.10;;;7.70;99.90;;;;;;5035594;28;20524;-78
2023/04/16 04:30:05;;;;;;;59.72;23.52;;;7.70;99.90;;;;;;5072322;28;20045;-78
2023/04/16 04:32:31;;;;;;;51.78;22.27;;;7.70;99.90;;;;;;5064677;28;20044;-77
2023/04/16 04:35:00;;;;;;;58.17;24.42;;;7.70;99.90;;;;;;5057330;28;20043;-77
2023/04/16 04:37:25;;;;;;;63.72;24.23;;;7.70;99.90;;;;;;5050516;28;20084;-77
2023/04/16 04:39:51;;;;;;;69.40;24.50;;;7.70;99.90;;;;;;5066836;28;20080;-77
2023/04/16 04:42:17;;;;;;;63.88;24.75;;;7.60;99.90;;;;;;5051413;28;20514;-77
2023/04/16 04:44:44;;;;;;;56.05;22.98;;;7.60;99.90;;;;;;5050891;28;20512;-79
2023/04/16 04:47:10;;;;;;;56.58;23.70;;;7.60;99.90;;;;;;5050380;28;20055;-78
2023/04/16 04:49:35;;;;;;;49.30;23.08;;;7.50;99.90;;;;;;5071827;28;20048;-77
2023/04/16 04:52:01;;;;;;;48.38;23.02;;;7.50;99.90;;;;;;5036645;28;20520;-77
2023/04/16 04:54:30;;;;;;;60.65;23.65;;;7.50;99.90;;;;;;5039372;28;20043;-76
2023/04/16 04:56:56;;;;;;;58.75;23.02;;;7.40;99.90;;;;;;5072754;28;20808;-79
2023/04/16 04:59:23;;;;;;;61.25;22.10;;;7.40;99.90;;;;;;5072834;28;20075;-76
2023/04/16 05:01:49;;;;;;;61.00;22.88;;;7.30;99.90;;;;;;5051297;28;20044;-76
2023/04/16 05:04:15;;;;;;;63.05;23.42;;;7.30;99.90;;;;;;5069597;28;20497;-76
2023/04/16 05:06:41;;;;;;;64.28;23.63;;;7.30;99.90;;;;;;5069389;28;20131;-77
2023/04/16 05:09:10;;;;;;;59.67;22.67;;;7.30;99.90;;;;;;5060587;28;20131;-78
2023/04/16 05:11:37;;;;;;;61.38;22.70;;;7.30;99.90;;;;;;5050128;28;20084;-78
2023/04/16 05:14:03;;;;;;;58.35;23.83;;;7.20;99.90;;;;;;5049683;28;20060;-78
2023/04/16 05:16:29;;;;;;;76.90;23.63;;;7.20;99.90;;;;;;5057694;28;20076;-77
2023/04/16 05:18:55;;;;;;;62.22;23.92;;;7.20;99.90;;;;;;5053695;28;20075;-77
2023/04/16 05:21:21;;;;;;;59.30;23.13;;;7.20;99.90;;;;;;5019190;28;20166;-77
2023/04/16 05:23:46;;;;;;;66.07;23.98;;;7.20;99.90;;;;;;5033132;28;20123;-77
2023/04/16 05:26:12;;;;;;;78.35;24.75;;;7.20;99.90;;;;;;5049167;28;20152;-77
2023/04/16 05:28:38;;;;;;;95.13;26.58;;;7.20;99.90;;;;;;5043160;28;20037;-79
2023/04/16 05:31:03;;;;;;;91.07;26.48;;;7.20;99.90;;;;;;5062940;28;20133;-78
2023/04/16 05:33:29;;;;;;;92.15;25.42;;;7.20;99.90;;;;;;5054115;28;20047;-78
2023/04/16 05:35:55;;;;;;;89.93;24.52;;;7.20;99.90;;;;;;5051102;28;20033;-78
2023/04/16 05:38:21;;;;;;;88.68;24.13;;;7.20;99.90;;;;;;5051491;28;20064;-78
2023/04/16 05:40:46;;;;;;;81.07;24.05;;;7.30;99.90;;;;;;5052157;28;20661;-78
2023/04/16 05:43:12;;;;;;;90.07;24.73;;;7.30;99.90;;;;;;5066460;28;20045;-78
2023/04/16 05:45:39;;;;;;;58.17;22.30;;;7.30;99.90;;;;;;5070694;28;20234;-78
2023/04/16 05:48:09;;;;;;;85.82;25.40;;;7.30;99.90;;;;;;5030295;28;20112;-78
2023/04/16 05:50:35;;;;;;;68.72;25.27;;;7.40;99.90;;;;;;5046561;28;20041;-77
2023/04/16 05:53:04;;;;;;;85.30;26.50;;;7.50;99.90;;;;;;5045823;28;20056;-77
2023/04/16 05:55:30;;;;;;;63.95;25.05;;;7.60;99.90;;;;;;5065768;28;20119;-78
2023/04/16 05:57:56;;;;;;;75.47;25.67;;;7.60;99.90;;;;;;5068819;28;20063;-78
2023/04/16 06:00:21;;;;;;;84.35;26.10;;;7.60;99.90;;;;;;5052036;28;20040;-78
2023/04/16 06:02:47;;;;;;;83.85;25.52;;;7.70;99.90;;;;;;5050452;28;20044;-79
2023/04/16 06:05:13;;;;;;;70.72;25.63;;;7.80;99.90;;;;;;5067634;28;20049;-79
2023/04/16 06:07:39;;;;;;;81.57;27.92;;;7.80;99.90;;;;;;5034495;28;20111;-79
2023/04/16 06:10:05;;;;;;;71.18;25.00;;;7.80;99.90;;;;;;5079327;28;20044;-79
2023/04/16 06:12:31;;;;;;;78.25;25.73;;;7.90;99.90;;;;;;5069974;28;20150;-78
2023/04/16 06:14:56;;;;;;;61.53;24.92;;;7.90;99.90;;;;;;5068371;28;20600;-77
2023/04/16 06:17:22;;;;;;;75.43;27.00;;;8.00;99.90;;;;;;5062509;28;20043;-77
2023/04/16 06:19:48;;;;;;;70.95;24.65;;;8.00;99.90;;;;;;5033808;28;20499;-77
2023/04/16 06:22:14;;;;;;;71.68;24.35;;;8.00;99.90;;;;;;5064914;28;20741;-76
2023/04/16 06:24:39;;;;;;;60.20;23.52;;;8.00;99.90;;;;;;5067202;28;20045;-78
2023/04/16 06:27:05;;;;;;;62.42;25.20;;;8.10;99.90;;;;;;5062064;28;20127;-77
2023/04/16 06:29:31;;;;;;;60.55;23.95;;;8.10;99.90;;;;;;5061526;28;20371;-77
2023/04/16 06:31:57;;;;;;;51.17;21.77;;;8.10;99.90;;;;;;5053483;28;20041;-77
2023/04/16 06:34:23;;;;;;;57.58;23.75;;;8.10;99.90;;;;;;5055896;28;20124;-75
2023/04/16 06:36:48;;;;;;;61.95;23.27;;;8.20;99.90;;;;;;5050764;28;20045;-77
2023/04/16 06:39:14;;;;;;;53.78;22.00;;;8.20;99.90;;;;;;5059635;28;20140;-77
2023/04/16 06:41:40;;;;;;;58.17;21.42;;;8.20;99.90;;;;;;5031117;28;20056;-78
2023/04/16 06:44:06;;;;;;;70.47;22.90;;;8.20;99.90;;;;;;5015197;28;20037;-77
2023/04/16 06:46:31;;;;;;;64.28;22.30;;;8.20;99.90;;;;;;5059369;28;20512;-78
2023/04/16 06:48:57;;;;;;;62.30;22.25;;;8.30;99.90;;;;;;5059000;28;20048;-78
2023/04/16 06:51:23;;;;;;;54.50;21.23;;;8.30;99.90;;;;;;5052713;28;20527;-78
2023/04/16 06:53:48;;;;;;;53.85;20.25;;;8.30;99.90;;;;;;5065128;28;20052;-78
2023/04/16 06:56:14;;;;;;;64.68;22.02;;;8.40;99.90;;;;;;5065810;28;20055;-77
2023/04/16 06:58:40;;;;;;;59.40;22.55;;;8.40;99.90;;;;;;5076474;28;20156;-76
2023/04/16 07:01:06;;;;;;;52.97;19.27;;;8.40;99.90;;;;;;5057372;28;20119;-76
2023/04/16 07:03:32;;;;;;;51.45;20.10;;;8.50;99.90;;;;;;5062824;28;20046;-76
2023/04/16 07:05:57;;;;;;;49.35;18.80;;;8.50;99.90;;;;;;5060197;28;20633;-76
2023/04/16 07:08:23;;;;;;;57.95;18.63;;;8.60;99.90;;;;;;5068872;28;20558;-77
2023/04/16 07:10:49;;;;;;;46.85;17.90;;;8.70;99.90;;;;;;5057882;28;20048;-76
2023/04/16 07:13:17;;;;;;;53.70;19.23;;;8.70;99.90;;;;;;5017492;28;20398;-77
2023/04/16 07:15:43;;;;;;;46.92;17.42;;;8.70;99.90;;;;;;5063196;28;20572;-78
2023/04/16 07:18:08;;;;;;;59.03;20.27;;;8.80;99.90;;;;;;5045916;28;20041;-78
2023/04/16 07:20:35;;;;;;;57.63;19.48;;;8.90;99.90;;;;;;5063836;28;20119;-79
2023/04/16 07:23:01;;;;;;;47.55;19.20;;;9.00;99.90;;;;;;5064618;28;20111;-77
2023/04/16 07:25:26;;;;;;;48.97;18.83;;;9.00;99.90;;;;;;5062742;28;20147;-76
2023/04/16 07:27:52;;;;;;;48.03;18.30;;;9.10;99.90;;;;;;5063424;28;20036;-76
2023/04/16 07:30:18;;;;;;;47.13;18.40;;;9.20;99.90;;;;;;5064912;28;20074;-77
2023/04/16 07:32:44;;;;;;;49.58;20.33;;;9.20;99.90;;;;;;5039405;28;20040;-77
2023/04/16 07:35:10;;;;;;;52.40;19.67;;;9.30;99.90;;;;;;5068757;28;20399;-75
2023/04/16 07:37:35;;;;;;;45.17;19.02;;;9.30;99.90;;;;;;5064799;28;20051;-76
2023/04/16 07:40:01;;;;;;;41.92;18.75;;;9.30;99.90;;;;;;5067250;28;20049;-77
2023/04/16 07:42:27;;;;;;;45.30;18.58;;;9.30;99.90;;;;;;5067892;28;20049;-77
2023/04/16 07:44:54;;;;;;;51.05;19.33;;;9.40;99.90;;;;;;5054163;28;20041;-77
2023/04/16 07:47:21;;;;;;;43.85;19.17;;;9.40;99.90;;;;;;5048787;28;20048;-77
2023/04/16 07:49:48;;;;;;;41.90;18.33;;;9.50;99.90;;;;;;5065222;28;20116;-77
2023/04/16 07:52:14;;;;;;;40.28;18.35;;;9.50;99.90;;;;;;5051092;28;20540;-77
2023/04/16 07:54:40;;;;;;;48.45;18.75;;;9.50;99.90;;;;;;5070916;28;20048;-78
2023/04/16 07:57:05;;;;;;;43.53;18.35;;;9.50;99.90;;;;;;5070491;28;20055;-77
2023/04/16 07:59:31;;;;;;;42.25;18.77;;;9.60;99.90;;;;;;5069499;28;20406;-77
2023/04/16 08:01:57;;;;;;;42.90;17.92;;;9.60;99.90;;;;;;5070135;28;20068;-76
2023/04/16 08:04:23;;;;;;;43.45;19.20;;;9.70;99.90;;;;;;5064226;28;20124;-77
2023/04/16 08:06:50;;;;;;;40.22;18.40;;;9.80;99.90;;;;;;5074602;28;20036;-78
2023/04/16 08:09:16;;;;;;;42.17;19.30;;;9.90;99.90;;;;;;5069124;28;20518;-76
2023/04/16 08:11:42;;;;;;;42.60;18.35;;;9.90;99.90;;;;;;5057489;28;20115;-78
2023/04/16 08:14:07;;;;;;;41.03;18.90;;;10.10;99.90;;;;;;5044382;28;20536;-77
2023/04/16 08:16:33;;;;;;;44.13;18.65;;;10.10;99.90;;;;;;5056344;28;20531;-77
2023/04/16 08:19:02;;;;;;;40.53;16.90;;;10.20;99.90;;;;;;5049715;28;20056;-77
2023/04/16 08:21:29;;;;;;;39.75;16.95;;;10.30;99.90;;;;;;5070718;28;20050;-76
2023/04/16 08:23:55;;;;;;;35.50;16.92;;;10.30;99.90;;;;;;5066055;28;20060;-77
2023/04/16 08:26:21;;;;;;;38.28;16.25;;;10.40;99.90;;;;;;5062458;28;20101;-77
2023/04/16 08:28:46;;;;;;;37.20;17.30;;;10.50;99.90;;;;;;5058596;28;20040;-78
2023/04/16 08:31:12;;;;;;;31.90;16.10;;;10.60;99.90;;;;;;5067637;28;20098;-77
2023/04/16 08:33:39;;;;;;;40.83;16.35;;;10.60;99.90;;;;;;5050730;28;20045;-78
2023/04/16 08:36:05;;;;;;;35.60;16.42;;;10.70;99.90;;;;;;5054287;28;20067;-77
2023/04/16 08:38:31;;;;;;;36.80;16.20;;;10.80;99.90;;;;;;5060428;28;20060;-78
2023/04/16 08:41:04;;;;;;;37.42;16.73;;;10.90;99.90;;;;;;5040437;28;20053;-76
2023/04/16 08:43:34;;;;;;;33.30;15.85;;;11.00;99.90;;;;;;5058098;28;20106;-77
2023/04/16 08:46:00;;;;;;;29.27;14.50;;;11.10;99.90;;;;;;5058642;28;20048;-76
2023/04/16 08:48:31;;;;;;;34.00;14.98;;;11.20;99.90;;;;;;5065669;28;20449;-77
2023/04/16 08:50:59;;;;;;;28.58;14.00;;;11.30;99.90;;;;;;5067986;28;20115;-77
2023/04/16 08:53:41;;;;;;;28.60;13.80;;;11.40;99.90;;;;;;5062668;28;20071;-78
2023/04/16 08:56:10;;;;;;;29.50;14.70;;;11.40;99.90;;;;;;5066508;28;20052;-77
2023/04/16 08:58:37;;;;;;;23.85;12.77;;;11.40;99.90;;;;;;5063693;28;20036;-78
2023/04/16 09:01:04;;;;;;;32.17;14.88;;;11.50;99.90;;;;;;5056603;28;20086;-78
2023/04/16 09:03:33;;;;;;;26.35;15.07;;;11.60;99.90;;;;;;5045109;28;20101;-78
2023/04/16 09:06:01;;;;;;;30.77;13.82;;;11.80;99.90;;;;;;5071394;28;20049;-77
2023/04/16 09:08:28;;;;;;;32.45;14.80;;;11.80;99.90;;;;;;5046137;28;20048;-78
2023/04/16 09:10:58;;;;;;;32.75;13.95;;;11.90;99.90;;;;;;5030304;28;20056;-77
2023/04/16 09:13:24;;;;;;;27.75;13.13;;;11.90;99.90;;;;;;5052989;28;20091;-76
2023/04/16 09:15:54;;;;;;;32.75;15.02;;;11.90;99.90;;;;;;5057724;28;20048;-77
2023/04/16 09:18:20;;;;;;;30.63;13.85;;;12.00;99.90;;;;;;5049846;28;20097;-77
2023/04/16 09:20:50;;;;;;;29.33;13.90;;;12.00;99.90;;;;;;5059097;28;20133;-77
2023/04/16 09:23:16;;;;;;;27.35;13.27;;;12.10;99.90;;;;;;5047443;28;20382;-77
2023/04/16 09:25:42;;;;;;;25.63;13.82;;;12.20;99.90;;;;;;5052708;28;20055;-77
2023/04/16 09:28:09;;;;;;;30.88;14.02;;;12.40;99.90;;;;;;5049072;28;20094;-77
2023/04/16 09:30:36;;;;;;;28.63;13.77;;;12.50;99.90;;;;;;5063579;28;20302;-77
2023/04/16 09:33:20;;;;;;;27.20;12.88;;;12.50;99.90;;;;;;5063302;28;20044;-77
2023/04/16 09:35:51;;;;;;;29.25;13.82;;;12.60;99.90;;;;;;5057546;28;20064;-77
2023/04/16 09:38:18;;;;;;;29.73;13.80;;;12.70;99.90;;;;;;5059760;28;20051;-78
2023/04/16 09:40:46;;;;;;;28.63;13.95;;;12.70;99.90;;;;;;5053230;28;20565;-77
2023/04/16 09:43:19;;;;;;;26.52;12.45;;;12.80;99.90;;;;;;5062323;28;20048;-76
2023/04/16 09:45:49;;;;;;;22.63;12.63;;;12.70;99.90;;;;;;5065818;28;20048;-78
2023/04/16 09:48:26;;;;;;;23.45;12.25;;;12.70;99.90;;;;;;5064719;28;20071;-78
2023/04/16 09:50:52;;;;;;;25.80;12.85;;;12.70;99.90;;;;;;5062316;28;20048;-78
2023/04/16 09:53:25;;;;;;;25.30;12.73;;;12.80;99.90;;;;;;5065082;28;20559;-78
2023/04/16 09:55:55;;;;;;;21.17;11.82;;;12.90;99.90;;;;;;5061941;28;20036;-78
2023/04/16 09:58:23;;;;;;;25.75;11.75;;;13.00;99.90;;;;;;5065948;28;20045;-78
2023/04/16 10:00:54;;;;;;;25.90;12.90;;;13.00;99.90;;;;;;5065471;28;20131;-76
2023/04/16 10:03:29;;;;;;;24.40;12.88;;;13.90;99.90;;;;;;5059582;28;20075;-76
2023/04/16 10:05:55;;;;;;;21.88;12.45;;;13.10;99.90;;;;;;5056966;28;20171;-78
2023/04/16 10:08:23;;;;;;;21.88;12.07;;;13.20;99.90;;;;;;4365343;28;10000423;-78
2023/04/16 10:10:48;;;;;;;23.73;12.27;;;13.20;99.90;;;;;;5046373;28;20045;-79
2023/04/16 10:13:16;;;;;;;23.20;12.35;;;13.40;99.90;;;;;;5049624;28;20117;-79
2023/04/16 10:15:42;;;;;;;20.67;11.95;;;13.40;99.90;;;;;;5062559;28;20486;-78
2023/04/16 10:18:08;;;;;;;20.85;11.80;;;13.50;99.90;;;;;;5038555;28;20036;-78
2023/04/16 10:20:35;;;;;;;22.80;11.68;;;13.50;99.90;;;;;;5068576;28;20053;-78
2023/04/16 10:23:02;;;;;;;22.08;12.10;;;13.60;99.90;;;;;;5049452;28;20447;-77
2023/04/16 10:25:28;;;;;;;26.90;12.77;;;13.60;99.90;;;;;;5063110;28;20080;-78
2023/04/16 10:27:55;;;;;;;21.73;11.75;;;13.70;99.90;;;;;;5063149;28;20049;-77
2023/04/16 10:30:22;;;;;;;20.33;11.32;;;13.70;99.90;;;;;;5048132;28;20048;-77
2023/04/16 10:32:48;;;;;;;25.00;12.02;;;13.90;99.90;;;;;;5058379;28;20075;-78
2023/04/16 10:35:18;;;;;;;20.85;11.82;;;14.00;99.90;;;;;;5041912;28;20089;-77
2023/04/16 10:37:44;;;;;;;24.58;12.30;;;14.00;99.90;;;;;;5062186;28;20037;-78
2023/04/16 10:40:26;;;;;;;24.73;12.07;;;13.80;99.90;;;;;;5044631;28;20064;-76
2023/04/16 10:43:00;;;;;;;27.67;12.10;;;13.70;99.90;;;;;;5056406;28;20041;-78
2023/04/16 10:45:36;;;;;;;26.17;11.93;;;13.80;99.90;;;;;;5067137;28;20083;-77
2023/04/16 10:48:08;;;;;;;29.77;13.25;;;13.90;99.90;;;;;;5061443;28;20094;-77
2023/04/16 10:50:38;;;;;;;25.58;11.90;;;13.90;99.90;;;;;;5055178;28;20044;-77
2023/04/16 10:53:18;;;;;;;27.45;12.05;;;13.70;99.90;;;;;;5059551;28;20155;-78
2023/04/16 10:56:05;;;;;;;26.05;11.15;;;13.70;99.90;;;;;;5048290;28;20390;-78
2023/04/16 10:58:34;;;;;;;24.90;11.75;;;13.80;99.90;;;;;;5047992;28;20111;-77
2023/04/16 11:01:05;;;;;;;26.15;11.98;;;14.00;99.90;;;;;;5055510;28;20191;-77
2023/04/16 11:03:31;;;;;;;29.67;13.05;;;14.10;99.90;;;;;;5056661;28;20044;-78
2023/04/16 11:06:30;;;;;;;24.17;11.40;;;14.20;99.90;;;;;;5063373;28;20048;-78
2023/04/16 11:08:56;;;;;;;24.02;12.02;;;14.40;99.90;;;;;;5002996;28;20401;-78
2023/04/16 11:11:22;;;;;;;29.25;11.85;;;14.20;99.90;;;;;;5072361;28;20070;-77
2023/04/16 11:13:48;;;;;;;23.77;11.85;;;14.20;99.90;;;;;;5054439;28;20089;-77
2023/04/16 11:16:15;;;;;;;25.30;11.52;;;14.30;99.90;;;;;;5050866;28;20037;-78
2023/04/16 11:18:43;;;;;;;25.35;12.18;;;14.20;99.90;;;;;;5054190;28;20519;-78
2023/04/16 11:21:11;;;;;;;25.85;12.07;;;14.10;99.90;;;;;;5049544;28;20075;-77
2023/04/16 11:23:51;;;;;;;25.52;12.07;;;14.10;99.90;;;;;;5041963;28;20078;-78
2023/04/16 11:26:26;;;;;;;23.67;11.52;;;14.00;99.90;;;;;;5060392;28;20056;-76
2023/04/16 11:28:53;;;;;;;28.88;12.75;;;14.00;99.90;;;;;;5057399;28;20056;-77
2023/04/16 11:31:19;;;;;;;22.60;12.07;;;14.00;99.90;;;;;;5051156;28;20092;-78
2023/04/16 11:33:45;;;;;;;23.55;11.50;;;14.10;99.90;;;;;;5054658;28;20210;-78
2023/04/16 11:36:11;;;;;;;24.42;11.88;;;14.20;99.90;;;;;;5052466;28;20049;-78
2023/04/16 11:38:39;;;;;;;29.75;13.18;;;14.20;99.90;;;;;;5066977;28;20399;-77
2023/04/16 11:41:05;;;;;;;23.88;12.10;;;14.20;99.90;;;;;;5049657;28;20052;-77
2023/04/16 11:43:31;;;;;;;26.90;13.25;;;14.20;99.90;;;;;;5070793;28;20048;-76
2023/04/16 11:46:05;;;;;;;27.17;14.15;;;14.20;99.90;;;;;;5059664;28;20067;-77
2023/04/16 11:48:50;;;;;;;25.25;13.50;;;14.20;99.90;;;;;;5072600;28;20047;-76
2023/04/16 11:51:17;;;;;;;26.73;12.77;;;14.20;99.90;;;;;;5071555;28;20040;-76
2023/04/16 11:53:47;;;;;;;28.00;13.38;;;14.20;99.90;;;;;;5066995;28;20040;-76
2023/04/16 11:56:13;;;;;;;28.75;13.15;;;14.20;99.90;;;;;;5061097;28;20049;-78
2023/04/16 11:58:39;;;;;;;30.45;13.88;;;14.00;99.90;;;;;;5068952;28;20048;-77
2023/04/16 12:01:07;;;;;;;27.23;13.82;;;14.00;99.90;;;;;;5053666;28;20493;-77
2023/04/16 12:03:38;;;;;;;26.85;13.05;;;13.80;99.90;;;;;;5067112;28;20395;-77
2023/04/16 12:06:08;;;;;;;31.60;14.15;;;14.00;99.90;;;;;;5054466;28;20037;-77
2023/04/16 12:08:34;;;;;;;29.20;13.77;;;14.20;99.90;;;;;;5055580;28;20102;-78
2023/04/16 12:10:59;;;;;;;28.88;14.20;;;14.40;99.90;;;;;;5070710;28;20154;-77
2023/04/16 12:13:25;;;;;;;29.90;13.63;;;14.40;99.90;;;;;;5080979;28;20048;-77
2023/04/16 12:15:53;;;;;;;30.27;13.68;;;14.30;99.90;;;;;;5054236;28;20037;-78
2023/04/16 12:18:25;;;;;;;26.55;13.80;;;14.20;99.90;;;;;;5052431;28;20536;-78
2023/04/16 12:20:51;;;;;;;26.00;13.38;;;14.40;99.90;;;;;;5069158;28;20044;-78
2023/04/16 12:23:31;;;;;;;31.13;13.43;;;14.50;99.90;;;;;;5079857;28;20162;-78
2023/04/16 12:26:01;;;;;;;27.02;13.23;;;14.50;99.90;;;;;;5034973;28;20045;-78
2023/04/16 12:28:33;;;;;;;28.73;13.55;;;14.50;99.90;;;;;;5051203;28;20072;-77
2023/04/16 12:30:58;;;;;;;26.33;13.23;;;14.50;99.90;;;;;;5066641;28;20398;-77
2023/04/16 12:33:24;;;;;;;30.50;13.82;;;14.60;99.90;;;;;;5068673;28;20048;-77